Time;durP1;ratioP1;P1;durP2;ratioP2;P2;SDS_P1;SDS_P2;PMS_P1;PMS_P2;Temp;Humidity;BMP_temperature;BMP_pressure;BME280_temperature;BME280_humidity;BME280_pressure;Samples;Min_cycle;Max_cycle;Signal;HPM_P1;HPM_P2
2022/12/05 00:01:36;;;;;;;;;;;5.50;99.90;;;;;;5051873;28;20340;-70
2022/12/05 00:04:02;;;;;;;;;;;;;;;;;;5016620;28;19959;-70
2022/12/05 00:06:28;;;;;;;;;;;;;;;;;;5033319;28;19976;-71
2022/12/05 00:08:53;;;;;;;;;;;;;;;;;;5017036;28;20386;-70
2022/12/05 00:11:19;;;;;;;;;;;;;;;;;;5033600;28;19986;-70
2022/12/05 00:13:45;;;;;;;;;;;;;;;;;;5052198;28;20298;-70
2022/12/05 00:16:12;;;;;;;;;;;5.60;99.90;;;;;;5032903;28;19921;-70
2022/12/05 00:18:38;;;;;;;;;;;;;;;;;;5051732;28;20430;-70
2022/12/05 00:21:04;;;;;;;;;;;5.50;99.90;;;;;;5033869;28;19925;-70
2022/12/05 00:23:30;;;;;;;;;;;5.60;99.90;;;;;;5033717;28;19924;-70
2022/12/05 00:25:55;;;;;;;;;;;5.40;99.90;;;;;;5032758;28;19928;-70
2022/12/05 00:28:21;;;;;;;;;;;;;;;;;;5035949;28;20326;-70
2022/12/05 00:30:47;;;;;;;;;;;;;;;;;;5071366;28;19921;-70
2022/12/05 00:33:13;;;;;;;;;;;;;;;;;;5053531;28;19920;-70
2022/12/05 00:35:38;;;;;;;;;;;5.50;99.90;;;;;;5036569;28;19928;-70
2022/12/05 00:38:04;;;;;;;;;;;5.70;99.90;;;;;;5071462;28;19920;-70
2022/12/05 00:40:29;;;;;;;;;;;;;;;;;;5070512;28;19927;-70
2022/12/05 00:42:55;;;;;;;;;;;;;;;;;;5050126;28;19982;-70
2022/12/05 00:45:21;;;;;;;;;;;;;;;;;;5054433;28;19921;-70
2022/12/05 00:47:47;;;;;;;;;;;5.80;99.90;;;;;;5059976;22;20317;-69
2022/12/05 00:50:12;;;;;;;;;;;5.50;99.90;;;;;;5055075;28;19920;-69
2022/12/05 00:52:38;;;;;;;;;;;;;;;;;;5036939;28;20007;-69
2022/12/05 00:55:04;;;;;;;;;;;;;;;;;;5053942;28;19978;-70
2022/12/05 00:57:30;;;;;;;;;;;5.70;99.90;;;;;;5044407;28;19924;-69
2022/12/05 00:59:56;;;;;;;;;;;;;;;;;;5045759;28;19924;-69
2022/12/05 01:02:22;;;;;;;;;;;5.80;99.90;;;;;;5045057;28;19999;-69
2022/12/05 01:04:47;;;;;;;;;;;5.50;99.90;;;;;;5053983;28;19921;-70
2022/12/05 01:07:13;;;;;;;;;;;;;;;;;;5052976;28;20062;-69
2022/12/05 01:09:39;;;;;;;;;;;;;;;;;;5039497;28;19928;-70
2022/12/05 01:12:04;;;;;;;;;;;5.90;99.90;;;;;;5034305;28;19925;-70
2022/12/05 01:14:30;;;;;;;;;;;5.80;99.90;;;;;;5016389;28;19921;-70
2022/12/05 01:16:56;;;;;;;;;;;;;;;;;;5035498;28;19928;-70
2022/12/05 01:19:22;;;;;;;;;;;;;;;;;;5033025;28;20394;-70
2022/12/05 01:21:48;;;;;;;;;;;;;;;;;;5033059;28;19921;-70
2022/12/05 01:24:14;;;;;;;;;;;;;;;;;;5032358;28;19983;-70
2022/12/05 01:26:40;;;;;;;;;;;5.80;99.90;;;;;;5034352;28;19921;-70
2022/12/05 01:29:06;;;;;;;;;;;;;;;;;;5045121;28;19956;-70
2022/12/05 01:31:33;;;;;;;;;;;5.80;99.90;;;;;;5054219;28;19968;-70
2022/12/05 01:33:59;;;;;;;;;;;;;;;;;;5038297;28;19921;-70
2022/12/05 01:36:25;;;;;;;;;;;;;;;;;;5031460;28;19940;-70
2022/12/05 01:38:50;;;;;;;;;;;;;;;;;;5032969;28;20445;-70
2022/12/05 01:41:18;;;;;;;;;;;5.80;99.90;;;;;;5034102;28;19925;-70
2022/12/05 01:43:43;;;;;;;;;;;;;;;;;;5034093;28;19961;-70
2022/12/05 01:46:09;;;;;;;;;;;;;;;;;;5032320;28;19971;-70
2022/12/05 01:48:35;;;;;;;;;;;;;;;;;;5042735;28;20379;-70
2022/12/05 01:51:02;;;;;;;;;;;;;;;;;;5039925;28;20004;-70
2022/12/05 01:53:28;;;;;;;;;;;;;;;;;;5032389;28;19924;-70
2022/12/05 01:55:54;;;;;;;;;;;;;;;;;;5031847;28;19925;-70
2022/12/05 01:58:19;;;;;;;;;;;5.90;99.90;;;;;;5032772;28;19921;-70
2022/12/05 02:00:45;;;;;;;;;;;5.80;99.90;;;;;;5048350;28;20394;-70
2022/12/05 02:03:11;;;;;;;;;;;;;;;;;;5041254;28;19971;-70
2022/12/05 02:05:37;;;;;;;;;;;;;;;;;;5031600;28;19925;-70
2022/12/05 02:08:02;;;;;;;;;;;;;;;;;;5038305;28;19929;-70
2022/12/05 02:10:29;;;;;;;;;;;6.00;99.90;;;;;;5052319;28;19920;-70
2022/12/05 02:12:55;;;;;;;;;;;;;;;;;;5053199;28;19970;-70
2022/12/05 02:15:21;;;;;;;;;;;;;;;;;;5052694;28;19921;-70
2022/12/05 02:17:46;;;;;;;;;;;5.80;99.90;;;;;;5053201;28;20352;-70
2022/12/05 02:20:15;;;;;;;;;;;6.00;99.90;;;;;;5040132;28;19927;-70
2022/12/05 02:22:52;;;;;;;;;;;5.90;99.90;;;;;;5033180;28;19921;-70
2022/12/05 02:25:18;;;;;;;;;;;;;;;;;;5031196;28;19974;-70
2022/12/05 02:27:44;;;;;;;;;;;;;;;;;;5031816;28;20390;-70
2022/12/05 02:30:10;;;;;;;;;;;;;;;;;;5033245;28;19928;-70
2022/12/05 02:32:36;;;;;;;;;;;;;;;;;;5033054;28;20326;-70
2022/12/05 02:35:02;;;;;;;;;;;;;;;;;;5031305;28;19928;-70
2022/12/05 02:37:35;;;;;;;;;;;6.00;99.90;;;;;;5032999;28;19927;-70
2022/12/05 02:40:01;;;;;;;;;;;;;;;;;;5031496;28;20458;-70
2022/12/05 02:42:27;;;;;;;;;;;;;;;;;;5031671;28;20021;-70
2022/12/05 02:45:00;;;;;;;;;;;6.10;99.90;;;;;;5031203;28;19921;-70
2022/12/05 02:47:28;;;;;;;;;;;6.20;99.90;;;;;;5032558;28;19969;-70
2022/12/05 02:49:55;;;;;;;;;;;6.10;99.90;;;;;;5032867;28;19925;-70
2022/12/05 02:52:21;;;;;;;;;;;6.20;99.90;;;;;;5032466;28;19925;-70
2022/12/05 02:54:48;;;;;;;;;;;6.10;99.90;;;;;;5031883;28;20465;-70
2022/12/05 02:57:14;;;;;;;;;;;6.00;99.90;;;;;;5042368;28;19944;-70
2022/12/05 02:59:39;;;;;;;;;;;6.10;99.90;;;;;;5051522;28;20003;-70
2022/12/05 03:02:06;;;;;;;;;;;6.20;99.90;;;;;;5051249;28;19929;-70
2022/12/05 03:04:32;;;;;;;;;;;6.30;99.90;;;;;;5050209;28;19999;-70
2022/12/05 03:06:59;;;;;;;;;;;6.30;99.90;;;;;;5050953;28;19920;-70
2022/12/05 03:09:27;;;;;;;;;;;6.20;99.90;;;;;;5048179;28;19929;-70
2022/12/05 03:12:03;;;;;;;;;;;5.90;99.90;;;;;;5032371;28;19929;-70
2022/12/05 03:14:32;;;;;;;;;;;6.40;99.90;;;;;;5031646;28;20016;-70
2022/12/05 03:17:00;;;;;;;;;;;6.20;99.90;;;;;;5031089;28;19971;-70
2022/12/05 03:19:45;;;;;;;;;;;6.30;99.90;;;;;;5031047;28;19921;-70
2022/12/05 03:22:18;;;;;;;;;;;6.20;99.90;;;;;;5020446;28;20422;-71
2022/12/05 03:24:43;;;;;;;;;;;6.20;99.90;;;;;;5030094;28;20038;-70
2022/12/05 03:27:25;;;;;;;;;;;6.10;99.90;;;;;;5033296;28;20422;-70
2022/12/05 03:29:55;;;;;;;;;;;6.10;99.90;;;;;;5032159;28;20387;-70
2022/12/05 03:32:24;;;;;;;;;;;6.00;99.90;;;;;;5032466;28;19925;-70
2022/12/05 03:34:52;;;;;;;;;;;6.40;99.90;;;;;;5030076;28;19928;-70
2022/12/05 03:37:35;;;;;;;;;;;6.20;99.90;;;;;;5030762;28;19921;-70
2022/12/05 03:40:04;;;;;;;;;;;6.30;99.90;;;;;;5030917;28;19928;-70
2022/12/05 03:42:32;;;;;;;;;;;6.20;99.90;;;;;;5030884;28;20430;-70
2022/12/05 03:45:09;;;;;;;;;;;6.10;99.90;;;;;;5032407;28;19921;-70
2022/12/05 03:47:46;;;;;;;;;;;6.20;99.90;;;;;;5031676;28;19928;-70
2022/12/05 03:50:27;;;;;;;;;;;6.10;99.90;;;;;;5031324;28;21364;-70
2022/12/05 03:53:04;;;;;;;;;;;6.20;99.90;;;;;;5030840;28;20299;-70
2022/12/05 03:55:32;;;;;;;;;;;6.10;99.90;;;;;;5031329;28;19921;-70
2022/12/05 03:58:00;;;;;;;;;;;6.00;99.90;;;;;;5030545;28;19921;-70
2022/12/05 04:00:27;;;;;;;;;;;6.20;99.90;;;;;;5031716;28;19972;-70
2022/12/05 04:02:54;;;;;;;;;;;6.30;99.90;;;;;;5030982;28;19964;-70
2022/12/05 04:05:26;;;;;;;;;;;6.20;99.90;;;;;;5029881;28;19921;-70
2022/12/05 04:07:55;;;;;;;;;;;6.10;99.90;;;;;;5030750;28;20005;-70
2022/12/05 04:10:24;;;;;;;;;;;6.00;99.90;;;;;;5031185;28;19921;-70
2022/12/05 04:12:52;;;;;;;;;;;6.30;99.90;;;;;;5031826;28;19929;-70
2022/12/05 04:15:21;;;;;;;;;;;6.10;99.90;;;;;;5030366;28;20530;-70
2022/12/05 04:17:57;;;;;;;;;;;6.00;99.90;;;;;;5035021;28;20020;-70
2022/12/05 04:23:12;;;;;;;;;;;6.10;99.90;;;;;;5034190;28;19932;-70
2022/12/05 04:25:58;;;;;;;;;;;5.90;99.90;;;;;;5033497;28;19921;-70
2022/12/05 04:28:27;;;;;;;;;;;6.10;99.90;;;;;;5022218;28;20392;-71
2022/12/05 04:30:57;;;;;;;;;;;6.30;99.90;;;;;;5054557;28;19970;-70
2022/12/05 04:33:46;;;;;;;;;;;6.30;99.90;;;;;;5055686;28;19921;-70
2022/12/05 04:36:12;;;;;;;;;;;;;;;;;;5050184;28;19921;-70
2022/12/05 04:38:44;;;;;;;;;;;6.00;99.90;;;;;;5055659;28;20142;-70
2022/12/05 04:41:13;;;;;;;;;;;6.10;99.90;;;;;;5054341;28;19936;-70
2022/12/05 04:43:40;;;;;;;;;;;6.20;99.90;;;;;;5045060;28;19966;-70
2022/12/05 04:46:08;;;;;;;;;;;6.20;99.90;;;;;;5033324;28;20366;-69
2022/12/05 04:48:35;;;;;;;;;;;6.20;99.90;;;;;;5034977;28;19925;-70
2022/12/05 04:51:03;;;;;;;;;;;6.10;99.90;;;;;;5033644;28;19929;-70
2022/12/05 04:53:29;;;;;;;;;;;6.00;99.90;;;;;;5035424;28;20008;-70
2022/12/05 04:55:56;;;;;;;;;;;6.10;99.90;;;;;;5034176;28;20379;-70
2022/12/05 04:58:23;;;;;;;;;;;6.10;99.90;;;;;;5017324;28;19967;-70
2022/12/05 05:01:00;;;;;;;;;;;6.10;99.90;;;;;;5052035;28;20417;-69
2022/12/05 05:03:26;;;;;;;;;;;6.10;99.90;;;;;;5055395;28;19921;-70
2022/12/05 05:05:53;;;;;;;;;;;6.20;99.90;;;;;;5052932;28;19921;-70
2022/12/05 05:08:20;;;;;;;;;;;6.00;99.90;;;;;;5053270;28;19920;-70
2022/12/05 05:10:58;;;;;;;;;;;6.00;99.90;;;;;;5054546;28;20501;-70
2022/12/05 05:13:23;;;;;;;;;;;6.10;99.90;;;;;;5053319;28;19925;-70
2022/12/05 05:15:49;;;;;;;;;;;6.10;99.90;;;;;;5034225;28;20405;-70
2022/12/05 05:18:14;;;;;;;;;;;6.00;99.90;;;;;;5052952;28;19921;-70
2022/12/05 05:20:39;;;;;;;;;;;6.10;99.90;;;;;;5054528;28;20440;-70
2022/12/05 05:23:05;;;;;;;;;;;6.10;99.90;;;;;;5054040;28;19921;-70
2022/12/05 05:25:30;;;;;;;;;;;6.20;99.90;;;;;;5052217;28;19921;-70
2022/12/05 05:27:56;;;;;;;;;;;5.90;99.90;;;;;;5043686;28;20070;-70
2022/12/05 05:30:22;;;;;;;;;;;6.20;99.90;;;;;;5034277;28;19921;-70
2022/12/05 05:32:48;;;;;;;;;;;6.20;99.90;;;;;;5039724;28;20428;-70
2022/12/05 05:35:13;;;;;;;;;;;6.20;99.90;;;;;;5051394;28;19968;-70
2022/12/05 05:37:39;;;;;;;;;;;6.30;99.90;;;;;;5053439;28;19982;-70
2022/12/05 05:40:06;;;;;;;;;;;6.30;99.90;;;;;;5051613;28;20378;-70
2022/12/05 05:42:32;;;;;;;;;;;;;;;;;;5051755;28;19920;-70
2022/12/05 05:44:57;;;;;;;;;;;6.00;99.90;;;;;;5037994;28;20321;-70
2022/12/05 05:47:23;;;;;;;;;;;6.20;99.90;;;;;;5052401;28;19924;-70
2022/12/05 05:49:48;;;;;;;;;;;6.20;99.90;;;;;;5041160;28;19996;-70
2022/12/05 05:52:13;;;;;;;;;;;6.20;99.90;;;;;;5033976;28;19929;-70
2022/12/05 05:54:39;;;;;;;;;;;6.30;99.90;;;;;;5032002;28;19944;-71
2022/12/05 05:57:05;;;;;;;;;;;6.30;99.90;;;;;;5033940;28;20023;-70
2022/12/05 05:59:30;;;;;;;;;;;6.30;99.90;;;;;;5033904;28;20391;-70
2022/12/05 06:01:56;;;;;;;;;;;6.40;99.90;;;;;;5033780;28;19965;-70
2022/12/05 06:04:21;;;;;;;;;;;6.50;99.90;;;;;;5032822;28;19921;-71
2022/12/05 06:06:47;;;;;;;;;;;6.10;99.90;;;;;;5034679;28;19928;-70
2022/12/05 06:09:12;;;;;;;;;;;6.40;99.90;;;;;;5033656;28;19968;-70
2022/12/05 06:11:38;;;;;;;;;;;6.30;99.90;;;;;;5033341;28;19932;-70
2022/12/05 06:14:03;;;;;;;;;;;6.20;99.90;;;;;;5033170;28;20395;-70
2022/12/05 06:16:30;;;;;;;;;;;6.20;99.90;;;;;;5033498;28;19967;-70
2022/12/05 06:18:56;;;;;;;;;;;6.30;99.90;;;;;;5032428;28;19971;-70
2022/12/05 06:21:22;;;;;;;;;;;6.30;99.90;;;;;;5032097;28;19921;-70
2022/12/05 06:23:48;;;;;;;;;;;6.20;99.90;;;;;;5033641;28;19925;-69
2022/12/05 06:26:16;;;;;;;;;;;6.30;99.90;;;;;;5033325;28;19987;-70
2022/12/05 06:28:41;;;;;;;;;;;6.20;99.90;;;;;;5033236;28;19921;-70
2022/12/05 06:31:07;;;;;;;;;;;6.20;99.90;;;;;;5033235;28;19925;-70
2022/12/05 06:33:33;;;;;;;;;;;6.40;99.90;;;;;;5033170;28;19920;-70
2022/12/05 06:36:13;;;;;;;;;;;6.30;99.90;;;;;;5032440;28;20371;-70
2022/12/05 06:38:39;;;;;;;;;;;6.20;99.90;;;;;;5032942;28;20364;-70
2022/12/05 06:41:06;;;;;;;;;;;6.20;99.90;;;;;;5033247;28;20044;-70
2022/12/05 06:43:31;;;;;;;;;;;6.40;99.90;;;;;;5033244;28;19921;-70
2022/12/05 06:45:57;;;;;;;;;;;6.20;99.90;;;;;;5030912;28;19921;-70
2022/12/05 06:48:22;;;;;;;;;;;6.10;99.90;;;;;;5059879;23;19925;-70
2022/12/05 06:50:51;;;;;;;;;;;6.00;99.90;;;;;;5040154;28;19920;-70
2022/12/05 06:53:17;;;;;;;;;;;6.20;99.90;;;;;;5040371;28;19974;-70
2022/12/05 06:55:43;;;;;;;;;;;6.30;99.90;;;;;;5034301;28;19927;-71
2022/12/05 06:58:08;;;;;;;;;;;6.20;99.90;;;;;;5035084;28;19963;-70
2022/12/05 07:03:18;;;;;;;;;;;6.30;99.90;;;;;;5034035;28;20020;-71
2022/12/05 07:05:43;;;;;;;;;;;6.40;99.90;;;;;;5032677;28;20015;-71
2022/12/05 07:08:09;;;;;;;;;;;6.20;99.90;;;;;;5034773;28;19975;-71
2022/12/05 07:10:37;;;;;;;;;;;6.20;99.90;;;;;;5052557;28;19928;-71
2022/12/05 07:13:02;;;;;;;;;;;6.40;99.90;;;;;;5052278;28;20031;-71
2022/12/05 07:15:28;;;;;;;;;;;6.40;99.90;;;;;;5031202;28;20051;-71
2022/12/05 07:17:53;;;;;;;;;;;6.20;99.90;;;;;;5044038;28;19980;-71
2022/12/05 07:20:19;;;;;;;;;;;6.20;99.90;;;;;;5048139;28;19975;-71
2022/12/05 07:22:45;;;;;;;;;;;;;;;;;;5030046;28;19938;-71
2022/12/05 07:25:10;;;;;;;;;;;6.20;99.90;;;;;;5010036;28;20711;-71
2022/12/05 07:27:36;;;;;;;;;;;6.10;99.90;;;;;;5043477;28;19951;-71
2022/12/05 07:30:02;;;;;;;;;;;6.30;99.90;;;;;;5043898;28;19925;-71
2022/12/05 07:32:28;;;;;;;;;;;;;;;;;;5046890;28;19929;-71
2022/12/05 07:34:54;;;;;;;;;;;6.40;99.90;;;;;;5046122;28;19925;-71
2022/12/05 07:37:19;;;;;;;;;;;6.30;99.90;;;;;;5047374;28;19925;-71
2022/12/05 07:39:45;;;;;;;;;;;6.40;99.90;;;;;;5047416;28;19952;-71
2022/12/05 07:42:10;;;;;;;;;;;6.40;99.90;;;;;;5012624;28;19992;-71
2022/12/05 07:44:36;;;;;;;;;;;6.30;99.90;;;;;;5046442;28;19929;-71
2022/12/05 07:47:01;;;;;;;;;;;6.30;99.90;;;;;;5047258;28;19925;-71
2022/12/05 07:49:27;;;;;;;;;;;6.30;99.90;;;;;;5030395;28;19974;-71
2022/12/05 07:51:52;;;;;;;;;;;6.40;99.90;;;;;;5049614;28;20012;-71
2022/12/05 07:54:18;;;;;;;;;;;6.40;99.90;;;;;;5050324;28;19925;-72
2022/12/05 07:56:44;;;;;;;;;;;;;;;;;;5029613;28;19921;-71
2022/12/05 07:59:09;;;;;;;;;;;6.40;99.90;;;;;;5040527;28;20034;-71
2022/12/05 08:01:35;;;;;;;;;;;6.40;99.90;;;;;;5038208;28;20394;-71
2022/12/05 08:04:01;;;;;;;;;;;6.30;99.90;;;;;;5050150;28;19925;-72
2022/12/05 08:06:27;;;;;;;;;;;6.50;99.90;;;;;;5054296;28;20405;-72
2022/12/05 08:08:53;;;;;;;;;;;6.40;99.90;;;;;;5032806;28;19921;-71
2022/12/05 08:11:20;;;;;;;;;;;6.50;99.90;;;;;;5052067;28;19925;-73
2022/12/05 08:13:46;;;;;;;;;;;6.40;99.90;;;;;;5032772;28;19921;-71
2022/12/05 08:16:12;;;;;;;;;;;6.40;99.90;;;;;;5053401;28;20412;-71
2022/12/05 08:18:38;;;;;;;;;;;6.40;99.90;;;;;;5053891;28;19928;-72
2022/12/05 08:21:04;;;;;;;;;;;6.70;99.90;;;;;;5040111;28;19925;-71
2022/12/05 08:23:30;;;;;;;;;;;;;;;;;;5051226;28;20012;-71
2022/12/05 08:25:59;;;;;;;;;;;6.60;99.90;;;;;;5031803;28;20413;-71
2022/12/05 08:28:25;;;;;;;;;;;6.40;99.90;;;;;;5024166;28;19925;-71
2022/12/05 08:30:50;;;;;;;;;;;6.80;99.90;;;;;;5032397;28;19921;-72
2022/12/05 08:33:16;;;;;;;;;;;6.50;99.90;;;;;;5035699;28;19925;-71
2022/12/05 08:35:41;;;;;;;;;;;6.40;99.90;;;;;;5017720;28;19921;-71
2022/12/05 08:38:07;;;;;;;;;;;6.60;99.90;;;;;;5027803;28;19921;-71
2022/12/05 08:40:32;;;;;;;;;;;6.60;99.90;;;;;;5024551;28;20007;-72
2022/12/05 08:42:58;;;;;;;;;;;6.70;99.90;;;;;;5023267;28;19944;-71
2022/12/05 08:45:23;;;;;;;;;;;6.50;99.90;;;;;;5048894;28;19921;-71
2022/12/05 08:47:49;;;;;;;;;;;6.50;99.90;;;;;;5035981;28;19986;-72
2022/12/05 08:50:14;;;;;;;;;;;6.60;99.90;;;;;;5022618;28;20016;-72
2022/12/05 08:52:40;;;;;;;;;;;6.60;99.90;;;;;;5050987;28;20345;-71
2022/12/05 08:55:06;;;;;;;;;;;6.60;99.90;;;;;;5025862;28;19929;-72
2022/12/05 08:57:31;;;;;;;;;;;6.70;99.90;;;;;;5034600;28;19928;-72
2022/12/05 08:59:57;;;;;;;;;;;6.40;99.90;;;;;;5019742;28;19928;-72
2022/12/05 09:02:23;;;;;;;;;;;6.50;99.90;;;;;;5024442;28;19979;-71
2022/12/05 09:04:49;;;;;;;;;;;6.60;99.90;;;;;;5015133;28;20000;-71
2022/12/05 09:07:14;;;;;;;;;;;6.60;99.90;;;;;;5002233;28;19921;-71
2022/12/05 09:09:40;;;;;;;;;;;6.50;99.90;;;;;;5011423;28;19921;-72
2022/12/05 09:12:05;;;;;;;;;;;6.60;99.90;;;;;;5044309;28;19932;-71
2022/12/05 09:14:31;;;;;;;;;;;6.50;99.90;;;;;;5023948;28;20015;-72
2022/12/05 09:16:57;;;;;;;;;;;6.60;99.90;;;;;;5037792;28;19924;-72
2022/12/05 09:19:24;;;;;;;;;;;6.60;99.90;;;;;;5035011;28;19928;-72
2022/12/05 09:21:50;;;;;;;;;;;6.70;99.90;;;;;;5016788;28;19975;-72
2022/12/05 09:24:15;;;;;;;;;;;6.60;99.90;;;;;;5014629;28;19925;-72
2022/12/05 09:26:41;;;;;;;;;;;6.40;99.90;;;;;;5039446;28;20283;-73
2022/12/05 09:29:07;;;;;;;;;;;6.60;99.90;;;;;;5045015;28;20452;-73
2022/12/05 09:31:32;;;;;;;;;;;6.70;99.90;;;;;;5018582;28;19924;-73
2022/12/05 09:33:59;;;;;;;;;;;6.60;99.90;;;;;;5034000;28;20327;-73
2022/12/05 09:36:26;;;;;;;;;;;6.70;99.90;;;;;;5036439;28;19924;-73
2022/12/05 09:38:51;;;;;;;;;;;6.60;99.90;;;;;;5042736;28;20410;-72
2022/12/05 09:42:03;;;;;;;;;;;6.60;99.90;;;;;;5042098;28;19931;-72
2022/12/05 09:44:23;;;;;;;;;;;6.80;99.90;;;;;;5033324;28;19932;-72
2022/12/05 09:46:52;;;;;;;;;;;6.70;99.90;;;;;;5015728;28;19921;-72
2022/12/05 09:49:18;;;;;;;;;;;6.70;99.90;;;;;;5021474;28;19928;-72
2022/12/05 09:51:45;;;;;;;;;;;6.60;99.90;;;;;;5018399;28;19925;-73
2022/12/05 09:54:11;;;;;;;;;;;6.70;99.90;;;;;;5045775;28;19925;-73
2022/12/05 09:56:37;;;;;;;;;;;6.50;99.90;;;;;;5020264;28;19925;-72
2022/12/05 09:59:04;;;;;;;;;;;6.70;99.90;;;;;;5029719;28;19924;-73
2022/12/05 10:01:51;;;;;;;;;;;6.60;99.90;;;;;;5052318;28;19943;-73
2022/12/05 10:04:33;;;;;;;;;;;6.60;99.90;;;;;;5014180;28;19964;-73
2022/12/05 10:07:16;;;;;;;;;;;6.70;99.90;;;;;;5018841;28;19975;-73
2022/12/05 10:09:48;;;;;;;;;;;6.70;99.90;;;;;;5027819;28;19928;-73
2022/12/05 10:12:13;;;;;;;;;;;6.70;99.90;;;;;;5034935;28;19936;-73
2022/12/05 10:15:14;;;;;;;;;;;6.90;99.90;;;;;;5049860;28;20007;-73
2022/12/05 10:17:42;;;;;;;;;;;6.40;99.90;;;;;;4979358;28;20478;-73
2022/12/05 10:20:28;;;;;;;;;;;6.60;99.90;;;;;;5003767;28;19921;-73
2022/12/05 10:22:55;;;;;;;;;;;6.70;99.90;;;;;;5029730;28;19921;-73
2022/12/05 10:25:24;;;;;;;;;;;6.50;99.90;;;;;;5036405;28;19921;-73
2022/12/05 10:27:51;;;;;;;;;;;6.60;99.90;;;;;;5038104;28;19928;-72
2022/12/05 10:30:18;;;;;;;;;;;6.70;99.90;;;;;;5052860;28;19925;-73
2022/12/05 10:32:52;;;;;;;;;;;6.70;99.90;;;;;;5016509;28;20409;-73
2022/12/05 10:35:23;;;;;;;;;;;6.60;99.90;;;;;;5031502;28;19921;-72
2022/12/05 10:38:01;;;;;;;;;;;6.80;99.90;;;;;;5034568;28;20306;-72
2022/12/05 10:40:32;;;;;;;;;;;6.50;99.90;;;;;;5042984;28;19936;-72
2022/12/05 10:42:58;;;;;;;;;;;6.60;99.90;;;;;;4998112;28;19921;-72
2022/12/05 10:45:24;;;;;;;;;;;6.80;99.90;;;;;;5035603;28;20579;-72
2022/12/05 10:47:52;;;;;;;;;;;6.70;99.90;;;;;;5034404;28;19921;-72
2022/12/05 10:50:18;;;;;;;;;;;;;;;;;;5046970;28;19960;-72
2022/12/05 10:52:45;;;;;;;;;;;6.60;99.90;;;;;;5014264;28;19968;-72
2022/12/05 10:55:13;;;;;;;;;;;6.90;99.90;;;;;;4997509;28;20348;-72
2022/12/05 10:57:38;;;;;;;;;;;6.60;99.90;;;;;;5013682;28;19922;-73
2022/12/05 11:00:12;;;;;;;;;;;6.70;99.90;;;;;;5031517;28;19928;-72
2022/12/05 11:02:39;;;;;;;;;;;6.60;99.90;;;;;;5031149;28;20003;-72
2022/12/05 11:05:05;;;;;;;;;;;6.70;99.90;;;;;;5021039;28;20403;-72
2022/12/05 11:07:30;;;;;;;;;;;6.50;99.90;;;;;;5013418;28;19931;-72
2022/12/05 11:10:00;;;;;;;;;;;6.50;99.90;;;;;;5017276;28;20293;-72
2022/12/05 11:12:31;;;;;;;;;;;6.50;99.90;;;;;;5033633;28;20011;-72
2022/12/05 11:14:57;;;;;;;;;;;6.60;99.90;;;;;;5029387;28;20781;-72
2022/12/05 11:17:29;;;;;;;;;;;6.70;99.90;;;;;;5016273;28;20015;-72
2022/12/05 11:19:55;;;;;;;;;;;6.80;99.90;;;;;;5030364;28;19972;-72
2022/12/05 11:22:28;;;;;;;;;;;6.40;99.90;;;;;;5027782;28;19987;-72
2022/12/05 11:24:54;;;;;;;;;;;6.50;99.90;;;;;;5028149;28;19932;-72
2022/12/05 11:27:24;;;;;;;;;;;6.60;99.90;;;;;;5017221;28;19921;-72
2022/12/05 11:29:55;;;;;;;;;;;6.50;99.90;;;;;;5055001;28;20405;-72
2022/12/05 11:32:21;;;;;;;;;;;;;;;;;;5036358;28;19931;-72
2022/12/05 11:34:50;;;;;;;;;;;6.60;99.90;;;;;;5050510;28;19924;-73
2022/12/05 11:37:45;;;;;;;;;;;6.60;99.90;;;;;;5045569;28;19920;-73
2022/12/05 11:40:40;;;;;;;;;;;6.70;99.90;;;;;;5014115;28;19924;-73
2022/12/05 11:43:11;;;;;;;;;;;6.50;99.90;;;;;;5027343;28;19932;-72
2022/12/05 11:45:36;;;;;;;;;;;6.50;99.90;;;;;;5028790;28;20053;-73
2022/12/05 11:48:24;;;;;;;;;;;6.60;99.90;;;;;;5027918;28;19921;-72
2022/12/05 11:50:55;;;;;;;;;;;6.60;99.90;;;;;;5043569;28;20317;-73
2022/12/05 11:53:28;;;;;;;;;;;6.70;99.90;;;;;;5050485;28;19974;-73
2022/12/05 11:55:57;;;;;;;;;;;6.50;99.90;;;;;;5017829;28;19925;-73
2022/12/05 11:58:36;;;;;;;;;;;6.40;99.90;;;;;;5032135;28;19925;-73
2022/12/05 12:01:07;;;;;;;;;;;6.70;99.90;;;;;;5051675;28;20039;-73
2022/12/05 12:03:48;;;;;;;;;;;6.60;99.90;;;;;;5024026;28;19920;-73
2022/12/05 12:06:19;;;;;;;;;;;6.50;99.90;;;;;;5016778;28;19921;-73
2022/12/05 12:09:11;;;;;;;;;;;6.70;99.90;;;;;;5026015;28;19936;-73
2022/12/05 12:11:41;;;;;;;;;;;6.60;99.90;;;;;;5031159;28;19974;-73
2022/12/05 12:14:26;;;;;;;;;;;6.40;99.90;;;;;;5002055;28;20354;-73
2022/12/05 12:17:02;;;;;;;;;;;6.50;99.90;;;;;;5002523;28;19920;-71
2022/12/05 12:19:48;;;;;;;;;;;6.50;99.90;;;;;;5026899;28;19925;-71
2022/12/05 12:22:18;;;;;;;;;;;6.40;99.90;;;;;;4995301;28;20399;-70
2022/12/05 12:25:07;;;;;;;;;;;6.30;99.90;;;;;;5016896;28;19925;-71
2022/12/05 12:27:32;;;;;;;;;;;6.60;99.90;;;;;;5043574;28;19967;-71
2022/12/05 12:30:05;;;;;;;;;;;6.50;99.90;;;;;;5049108;28;20527;-71
2022/12/05 12:32:39;;;;;;;;;;;6.40;99.90;;;;;;5044284;28;19925;-71
2022/12/05 12:35:14;;;;;;;;;;;6.50;99.90;;;;;;5032183;28;19921;-71
2022/12/05 12:37:59;;;;;;;;;;;6.40;99.90;;;;;;5035035;28;19943;-71
2022/12/05 12:40:38;;;;;;;;;;;6.80;99.90;;;;;;5045337;28;20015;-71
2022/12/05 12:43:09;;;;;;;;;;;6.60;99.90;;;;;;5053907;28;19972;-71
2022/12/05 12:45:41;;;;;;;;;;;6.50;99.90;;;;;;5017971;28;20022;-71
2022/12/05 12:48:31;;;;;;;;;;;6.50;99.90;;;;;;5035352;28;19925;-71
2022/12/05 12:51:00;;;;;;;;;;;6.50;99.90;;;;;;5038706;28;20314;-71
2022/12/05 12:53:25;;;;;;;;;;;6.40;99.90;;;;;;5021239;28;20475;-71
2022/12/05 12:56:13;;;;;;;;;;;6.60;99.90;;;;;;5033213;28;20034;-71
2022/12/05 12:58:57;;;;;;;;;;;6.50;99.90;;;;;;5045931;28;19928;-71
2022/12/05 13:01:31;;;;;;;;;;;6.60;99.90;;;;;;5027862;28;19921;-71
2022/12/05 13:04:11;;;;;;;;;;;6.40;99.90;;;;;;5029460;28;19924;-71
2022/12/05 13:06:36;;;;;;;;;;;6.50;99.90;;;;;;5035765;28;19925;-71
2022/12/05 13:09:11;;;;;;;;;;;6.60;99.90;;;;;;5033708;28;19922;-72
2022/12/05 13:11:37;;;;;;;;;;;6.40;99.90;;;;;;5033621;28;19994;-71
2022/12/05 13:14:08;;;;;;;;;;;6.60;99.90;;;;;;5053068;28;20422;-71
2022/12/05 13:16:36;;;;;;;;;;;6.60;99.90;;;;;;5046688;28;19928;-72
2022/12/05 13:19:04;;;;;;;;;;;6.40;99.90;;;;;;5033403;28;20026;-71
2022/12/05 13:21:30;;;;;;;;;;;6.50;99.90;;;;;;5025159;28;20406;-71
2022/12/05 13:23:58;;;;;;;;;;;6.50;99.90;;;;;;5033590;28;19975;-71
2022/12/05 13:26:23;;;;;;;;;;;6.30;99.90;;;;;;5015999;28;19928;-71
2022/12/05 13:28:52;;;;;;;;;;;6.40;99.90;;;;;;5017051;28;20322;-71
2022/12/05 13:31:18;;;;;;;;;;;6.40;99.90;;;;;;5041635;28;20002;-71
2022/12/05 13:33:48;;;;;;;;;;;6.70;99.90;;;;;;5052472;28;19974;-70
2022/12/05 13:44:40;;;;;;;;;;;6.40;99.90;;;;;;5015904;28;19922;-71
2022/12/05 13:47:06;;;;;;;;;;;6.50;99.90;;;;;;5019767;28;19947;-71
2022/12/05 13:49:40;;;;;;;;;;;6.60;99.90;;;;;;5017567;28;19924;-72
2022/12/05 13:52:14;;;;;;;;;;;6.60;99.90;;;;;;5021292;28;19929;-71
2022/12/05 13:54:45;;;;;;;;;;;6.40;99.90;;;;;;5001890;28;19956;-71
2022/12/05 13:57:30;;;;;;;;;;;6.60;99.90;;;;;;5015951;28;20028;-71
2022/12/05 14:00:08;;;;;;;;;;;6.50;99.90;;;;;;5027780;28;20458;-71
2022/12/05 14:02:44;;;;;;;;;;;6.30;99.90;;;;;;5032381;28;19925;-71
2022/12/05 14:05:12;;;;;;;;;;;6.50;99.90;;;;;;5032656;28;19921;-71
2022/12/05 14:07:40;;;;;;;;;;;6.60;99.90;;;;;;5037200;28;19921;-71
2022/12/05 14:10:06;;;;;;;;;;;6.30;99.90;;;;;;5020166;28;20484;-71
2022/12/05 14:12:52;;;;;;;;;;;6.50;99.90;;;;;;5034907;28;20022;-71
2022/12/05 14:15:31;;;;;;;;;;;6.50;99.90;;;;;;5025527;28;20011;-71
2022/12/05 14:18:10;;;;;;;;;;;6.40;99.90;;;;;;5034880;28;19932;-71
2022/12/05 14:20:55;;;;;;;;;;;6.50;99.90;;;;;;5027252;28;19947;-71
2022/12/05 14:23:38;;;;;;;;;;;6.40;99.90;;;;;;5047209;28;19994;-71
2022/12/05 14:26:19;;;;;;;;;;;6.40;99.90;;;;;;5017862;28;20321;-71
2022/12/05 14:28:51;;;;;;;;;;;6.60;99.90;;;;;;5026278;28;19921;-72
2022/12/05 14:31:35;;;;;;;;;;;6.40;99.90;;;;;;5051496;28;19978;-72
2022/12/05 14:34:13;;;;;;;;;;;6.30;99.90;;;;;;5015148;28;20375;-71
2022/12/05 14:36:50;;;;;;;;;;;6.40;99.90;;;;;;5034430;28;19933;-71
2022/12/05 14:39:29;;;;;;;;;;;6.60;99.90;;;;;;5024538;28;19968;-71
2022/12/05 14:41:56;;;;;;;;;;;6.30;99.90;;;;;;5034389;28;19936;-72
2022/12/05 14:44:22;;;;;;;;;;;6.20;99.90;;;;;;5051805;28;20374;-71
2022/12/05 14:46:48;;;;;;;;;;;6.40;99.90;;;;;;5037208;28;20272;-71
2022/12/05 14:49:33;;;;;;;;;;;6.20;99.90;;;;;;5014869;28;19944;-71
2022/12/05 14:51:59;;;;;;;;;;;6.50;99.90;;;;;;5014286;28;19925;-72
2022/12/05 14:54:24;;;;;;;;;;;6.30;99.90;;;;;;5045907;28;19928;-72
2022/12/05 14:56:51;;;;;;;;;;;6.40;99.90;;;;;;5032917;28;20321;-71
2022/12/05 14:59:24;;;;;;;;;;;6.50;99.90;;;;;;4998166;28;19925;-72
2022/12/05 15:02:00;;;;;;;;;;;6.50;99.90;;;;;;5013740;28;20023;-71
2022/12/05 15:04:37;;;;;;;;;;;6.30;99.90;;;;;;5013392;28;19925;-72
2022/12/05 15:07:09;;;;;;;;;;;6.20;99.90;;;;;;5031879;28;20016;-72
2022/12/05 15:09:55;;;;;;;;;;;6.50;99.90;;;;;;5020801;28;19967;-72
2022/12/05 15:12:26;;;;;;;;;;;6.30;99.90;;;;;;5032058;28;20385;-71